createdAt,value
2022-08-07T00:04:39.566Z,101097.16
2022-08-07T00:14:44.419Z,101096.41
2022-08-07T00:24:49.512Z,101084.38
2022-08-07T00:34:54.071Z,101082.91
2022-08-07T00:44:59.387Z,101080.63
2022-08-07T00:55:04.582Z,101078.44
2022-08-07T01:05:19.330Z,101082.34
2022-08-07T01:15:35.936Z,101065.25
2022-08-07T01:25:55.558Z,101066.28
2022-08-07T01:36:06.491Z,101064.13
2022-08-07T01:46:13.172Z,101071.50
2022-08-07T01:56:24.198Z,101070.16
2022-08-07T02:06:35.589Z,101072.88
2022-08-07T02:16:40.668Z,101057.25
2022-08-07T02:26:48.342Z,101066.09
2022-08-07T02:36:53.329Z,101062.38
2022-08-07T02:47:00.826Z,101061.19
2022-08-07T02:57:06.562Z,101059.13
2022-08-07T03:07:13.014Z,101049.16
2022-08-07T03:17:25.573Z,101040.88
2022-08-07T03:27:42.179Z,101037.06
2022-08-07T03:37:59.134Z,101035.63
2022-08-07T03:48:05.207Z,101038.16
2022-08-07T03:59:04.641Z,101036.13
2022-08-07T04:08:41.178Z,101037.84
2022-08-07T04:18:59.840Z,101034.50
2022-08-07T04:29:11.046Z,101043.91
2022-08-07T04:39:15.040Z,101060.50
2022-08-07T04:49:37.769Z,101066.22
2022-08-07T05:00:11.067Z,101059.09
2022-08-07T05:10:24.690Z,101072.66
2022-08-07T05:20:36.676Z,101072.50
2022-08-07T05:30:43.636Z,101088.81
2022-08-07T05:40:51.998Z,101097.47
2022-08-07T05:50:57.937Z,101106.09
2022-08-07T06:01:05.076Z,101102.44
2022-08-07T06:11:12.991Z,101110.09
2022-08-07T06:22:16.780Z,101101.22
2022-08-07T06:31:49.692Z,101093.13
2022-08-07T06:42:04.304Z,101092.63
2022-08-07T06:52:12.104Z,101077.81
2022-08-07T07:02:48.123Z,101076.47
2022-08-07T07:12:53.776Z,101071.13
2022-08-07T07:24:10.799Z,101063.63
2022-08-07T07:33:25.004Z,101066.84
2022-08-07T07:43:48.060Z,101061.78
2022-08-07T07:53:59.715Z,101046.97
2022-08-07T08:04:11.996Z,101032.72
2022-08-07T08:14:21.420Z,101013.13
2022-08-07T08:24:57.096Z,101012.19
2022-08-07T08:35:18.276Z,100996.41
2022-08-07T08:45:59.013Z,100978.44
2022-08-07T08:56:11.212Z,100982.06
2022-08-07T09:06:26.462Z,100986.63
2022-08-07T09:16:58.004Z,100967.69
2022-08-07T09:27:12.049Z,100959.22
2022-08-07T09:37:53.507Z,100959.25
2022-08-07T09:48:14.463Z,100939.47
2022-08-07T09:59:46.130Z,100920.53
2022-08-07T10:10:21.420Z,100908.50
2022-08-07T10:20:40.975Z,100885.97
2022-08-07T10:31:05.865Z,100874.84
2022-08-07T10:41:47.392Z,100873.84
2022-08-07T10:52:13.030Z,100861.91
2022-08-07T11:02:34.136Z,100860.81
2022-08-07T11:13:02.029Z,100844.63
2022-08-07T11:23:20.629Z,100827.91
2022-08-07T11:33:58.626Z,100821.47
2022-08-07T11:44:18.677Z,100810.56
2022-08-07T11:55:03.435Z,100799.81
2022-08-07T12:05:28.333Z,100785.22
2022-08-07T12:16:05.914Z,100775.00
2022-08-07T12:26:23.101Z,100767.81
2022-08-07T12:36:33.911Z,100755.13
2022-08-07T12:46:54.626Z,100750.75
2022-08-07T12:57:09.739Z,100732.53
2022-08-07T13:08:14.673Z,100734.28
2022-08-07T13:18:28.688Z,100713.69
2022-08-07T13:28:39.861Z,100721.25
2022-08-07T13:38:57.797Z,100705.75
2022-08-07T13:49:08.927Z,100686.66
2022-08-07T13:59:33.210Z,100686.88
2022-08-07T14:10:02.693Z,100673.13
2022-08-07T14:20:42.873Z,100670.38
2022-08-07T14:30:40.867Z,100665.78
2022-08-07T14:40:49.447Z,100657.03
2022-08-07T14:50:57.762Z,100647.66
2022-08-07T15:11:52.820Z,100644.31
2022-08-07T15:22:05.717Z,100625.88
2022-08-07T15:32:12.517Z,100624.47
2022-08-07T15:42:51.742Z,100622.63
2022-08-07T15:53:02.450Z,100604.28
2022-08-07T16:03:20.822Z,100598.59
2022-08-07T16:14:07.020Z,100591.75
2022-08-07T16:24:34.901Z,100584.34
2022-08-07T16:34:48.833Z,100579.56
2022-08-07T16:46:40.761Z,100580.50
2022-08-07T16:55:53.765Z,100579.66
2022-08-07T17:06:30.705Z,100568.03
2022-08-07T17:16:46.094Z,100566.66
2022-08-07T17:27:06.587Z,100571.06
2022-08-07T17:38:06.745Z,100581.59
2022-08-07T17:48:02.715Z,100582.13
2022-08-07T17:58:30.133Z,100583.47
2022-08-07T18:09:01.881Z,100588.25
2022-08-07T18:21:12.641Z,100605.50
2022-08-07T18:30:07.771Z,100625.94
2022-08-07T18:40:43.895Z,100633.41
2022-08-07T18:51:15.075Z,100637.31
2022-08-07T19:02:32.871Z,100656.72
2022-08-07T19:12:17.877Z,100647.44
2022-08-07T19:22:31.166Z,100680.31
2022-08-07T19:32:45.379Z,100688.97
2022-08-07T19:42:51.630Z,100700.22
2022-08-07T19:52:58.897Z,100715.66
2022-08-07T20:03:33.891Z,100715.66
2022-08-07T20:13:41.755Z,100725.84
2022-08-07T20:23:54.130Z,100732.69
2022-08-07T20:34:01.765Z,100739.38
2022-08-07T20:44:12.333Z,100740.94
2022-08-07T20:54:29.824Z,100735.63
2022-08-07T21:04:37.024Z,100738.91
2022-08-07T21:14:48.516Z,100739.66
2022-08-07T21:25:12.185Z,100736.25
2022-08-07T21:36:03.835Z,100733.56
2022-08-07T21:46:09.033Z,100738.31
2022-08-07T21:56:39.673Z,100757.75
2022-08-07T22:06:59.745Z,100759.34
2022-08-07T22:17:07.599Z,100752.06
2022-08-07T22:27:20.784Z,100760.34
2022-08-07T22:38:04.151Z,100766.31
2022-08-07T22:48:31.785Z,100779.63
2022-08-07T22:59:04.905Z,100778.38
2022-08-07T23:10:04.111Z,100776.06
2022-08-07T23:20:40.739Z,100779.81
2022-08-07T23:31:05.608Z,100787.38
2022-08-07T23:41:33.281Z,100778.38
2022-08-07T23:53:01.974Z,100768.81
